Time;durP1;ratioP1;P1;durP2;ratioP2;P2;SDS_P1;SDS_P2;PMS_P1;PMS_P2;Temp;Humidity;BMP_temperature;BMP_pressure;BME280_temperature;BME280_humidity;BME280_pressure;Samples;Min_cycle;Max_cycle;Signal;HPM_P1;HPM_P2
2022/02/09 00:00:25;;;;;;;5.82;4.90;;;;;;;7.65;92.08;101735.53;6303928;22;20022;-94
2022/02/09 00:03:11;;;;;;;5.25;4.57;;;;;;;7.78;92.33;101754.69;6301004;22;20015;-94
2022/02/09 00:06:00;;;;;;;6.57;5.00;;;;;;;7.85;92.10;101745.81;6278750;22;20046;-95
2022/02/09 00:08:29;;;;;;;5.70;4.90;;;;;;;7.77;91.11;101738.00;6304981;22;20023;-95
2022/02/09 00:11:03;;;;;;;6.68;5.00;;;;;;;7.62;91.57;101717.97;6306186;22;20011;-95
2022/02/09 00:14:15;;;;;;;5.95;5.35;;;;;;;7.89;91.78;101769.44;6307119;22;20011;-96
2022/02/09 00:19:27;;;;;;;9.35;5.97;;;;;;;7.48;92.58;101704.13;6307525;22;20451;-94
2022/02/09 00:22:12;;;;;;;8.57;5.75;;;;;;;7.71;92.72;101749.47;6280067;22;20019;-95
2022/02/09 00:24:59;;;;;;;6.57;5.55;;;;;;;7.44;92.80;101710.31;6282652;22;20106;-96
2022/02/09 00:39:01;;;;;;;8.60;6.10;;;;;;;7.47;93.43;101706.78;6198346;22;20013;-95
2022/02/09 01:11:44;;;;;;;7.78;5.25;;;;;;;7.47;92.14;101688.31;6309361;22;20015;-94
2022/02/09 01:39:42;;;;;;;6.60;5.90;;;;;;;7.50;92.85;101717.28;6314638;22;20007;-95
2022/02/09 01:55:49;;;;;;;6.82;5.43;;;;;;;7.60;91.81;101697.81;6308727;22;20023;-94
2022/02/09 01:58:20;;;;;;;6.97;5.32;;;;;;;7.61;91.90;101715.38;6307689;22;20015;-95
2022/02/09 02:00:50;;;;;;;6.93;5.70;;;;;;;7.44;92.04;101676.06;6307478;22;20023;-93
2022/02/09 02:03:17;;;;;;;6.22;5.10;;;;;;;7.62;92.06;101717.09;6309069;22;20015;-93
2022/02/09 02:05:48;;;;;;;5.75;5.15;;;;;;;7.40;91.84;101672.59;6307938;22;20080;-96
2022/02/09 02:08:24;;;;;;;6.70;4.93;;;;;;;7.63;91.74;101708.31;6307489;22;20019;-95
2022/02/09 02:11:04;;;;;;;5.88;4.90;;;;;;;7.57;91.58;101688.16;6303043;22;20019;-94
2022/02/09 02:19:03;;;;;;;6.45;4.90;;;;;;;7.77;91.49;101708.09;6304418;22;20019;-95
2022/02/09 02:21:45;;;;;;;5.97;4.75;;;;;;;7.56;91.38;101675.88;6281072;22;20401;-95
2022/02/09 02:30:08;;;;;;;7.32;4.97;;;;;;;7.63;90.41;101677.53;6306998;22;20453;-94
2022/02/09 02:32:56;;;;;;;6.72;4.82;;;;;;;7.65;91.00;101674.91;6281117;22;20499;-94
2022/02/09 02:36:02;;;;;;;6.00;4.72;;;;;;;7.40;91.08;101622.50;6282170;22;20335;-94
2022/02/09 02:57:20;;;;;;;5.40;4.65;;;;;;;7.73;89.87;101673.00;6320763;22;20039;-94
2022/02/09 03:13:59;;;;;;;6.47;4.73;;;;;;;7.63;89.00;101634.50;6326709;22;20026;-94
2022/02/09 03:16:32;;;;;;;6.13;4.47;;;;;;;7.62;89.12;101633.63;6316710;22;20576;-94
2022/02/09 03:19:39;;;;;;;5.45;4.88;;;;;;;7.62;89.07;101630.13;6280783;22;20102;-94
2022/02/09 03:22:19;;;;;;;6.13;4.97;;;;;;;7.45;89.24;101603.13;6305764;22;20335;-94
2022/02/09 03:25:06;;;;;;;6.05;4.68;;;;;;;7.50;88.16;101610.09;6308728;22;20016;-93
2022/02/09 03:55:17;;;;;;;7.28;5.45;;;;;;;7.59;87.73;101587.97;6309584;22;20068;-93
2022/02/09 03:57:45;;;;;;;9.93;5.93;;;;;;;7.83;87.54;101626.28;6307579;22;20015;-96
2022/02/09 04:00:19;;;;;;;6.22;5.40;;;;;;;7.88;87.88;101641.13;6306284;22;20043;-94
2022/02/09 04:02:51;;;;;;;6.50;5.45;;;;;;;7.74;87.52;101603.56;6281436;22;20015;-96
2022/02/09 04:05:19;;;;;;;6.25;5.28;;;;;;;7.73;87.49;101617.63;6308920;22;20007;-96
2022/02/09 04:07:47;;;;;;;6.57;5.50;;;;;;;7.60;87.85;101602.91;6308617;22;20042;-95
2022/02/09 04:10:24;;;;;;;7.28;5.97;;;;;;;7.59;88.62;101599.41;6308283;22;20026;-96
2022/02/09 04:15:41;;;;;;;8.40;6.30;;;;;;;7.52;88.22;101581.94;6308250;22;20042;-96
2022/02/09 04:18:23;;;;;;;8.65;6.28;;;;;;;7.44;88.90;101577.66;6311184;22;20098;-96
2022/02/09 04:37:50;;;;;;;8.05;6.03;;;;;;;7.44;89.42;101573.28;6331900;22;20007;-96
2022/02/09 04:57:01;;;;;;;8.07;6.47;;;;;;;7.42;89.05;101561.00;6309519;22;20073;-96
2022/02/09 05:21:22;;;;;;;8.70;7.07;;;;;;;7.42;89.66;101574.19;6306579;22;20057;-95
2022/02/09 05:28:45;;;;;;;8.90;7.03;;;;;;;7.26;90.48;101566.50;6306927;22;20090;-94
2022/02/09 05:31:20;;;;;;;9.75;7.28;;;;;;;7.25;90.44;101548.09;6303885;22;20393;-94
2022/02/09 05:33:48;;;;;;;10.52;7.13;;;;;;;7.44;90.37;101580.31;6305386;22;20026;-95
2022/02/09 05:36:18;;;;;;;9.10;7.45;;;;;;;7.30;90.23;101557.69;6307856;22;20017;-95
2022/02/09 05:38:45;;;;;;;10.10;7.38;;;;;;;7.42;90.05;101576.81;6308357;22;20359;-94
2022/02/09 05:41:12;;;;;;;12.52;7.68;;;;;;;7.35;89.76;101558.50;6307128;22;20521;-95
2022/02/09 05:43:39;;;;;;;9.40;7.43;;;;;;;7.46;89.78;101573.25;6309955;22;20457;-95
2022/02/09 05:51:47;;;;;;;10.65;7.75;;;;;;;7.63;90.23;101627.47;6308509;22;20022;-96
2022/02/09 05:56:47;;;;;;;10.75;8.32;;;;;;;7.21;90.86;101560.47;6310077;22;20092;-94
2022/02/09 06:01:48;;;;;;;11.77;8.20;;;;;;;7.48;91.47;101611.00;6306002;22;20019;-93
2022/02/09 06:04:15;;;;;;;9.55;7.60;;;;;;;7.54;90.64;101609.16;6308467;22;20022;-95
2022/02/09 06:06:43;;;;;;;11.68;8.32;;;;;;;7.59;90.77;101615.22;6308885;22;20446;-94
2022/02/09 06:09:13;;;;;;;;;;;;;;;7.54;91.01;101609.16;6308783;22;20011;-94
2022/02/09 06:11:48;;;;;;;12.32;8.30;;;;;;;7.34;91.16;101583.09;6307032;22;19899;-94
2022/02/09 06:22:16;;;;;;;13.55;8.65;;;;;;;7.21;91.60;101570.13;6307575;22;20023;-94
2022/02/09 06:24:44;;;;;;;10.98;8.23;;;;;;;7.25;91.66;101582.34;6310172;22;20071;-93
2022/02/09 06:27:14;;;;;;;12.57;8.40;;;;;;;7.55;91.22;101621.44;6323683;22;20007;-94
2022/02/09 06:29:47;;;;;;;11.35;8.73;;;;;;;7.43;91.05;101597.00;6330482;22;20079;-95
2022/02/09 06:32:16;;;;;;;9.98;7.57;;;;;;;7.45;91.25;101604.00;6326013;22;20264;-95
2022/02/09 06:34:46;;;;;;;11.57;8.63;;;;;;;7.56;91.27;101617.00;6323704;22;20076;-94
2022/02/09 06:37:39;;;;;;;12.65;9.10;;;;;;;7.36;91.18;101591.84;6284286;22;20461;-93
2022/02/09 06:40:19;;;;;;;11.60;8.07;;;;;;;7.18;91.50;101554.34;6283823;22;20039;-95
2022/02/09 06:42:53;;;;;;;12.88;8.43;;;;;;;7.21;90.96;101562.22;6284072;22;20094;-96
2022/02/09 06:45:26;;;;;;;11.98;8.63;;;;;;;7.20;91.12;101568.38;6279846;22;20089;-96
2022/02/09 06:47:57;;;;;;;9.65;8.35;;;;;;;7.33;91.51;101589.25;6253474;22;20015;-95
2022/02/09 06:50:53;;;;;;;12.68;8.32;;;;;;;7.53;91.44;101627.63;6281186;22;20382;-96
2022/02/09 06:54:28;;;;;;;10.32;8.50;;;;;;;7.55;90.72;101625.84;6282215;22;20073;-96
2022/02/09 07:00:51;;;;;;;11.10;8.15;;;;;;;7.36;91.31;101594.50;6281780;22;20498;-96
2022/02/09 07:03:47;;;;;;;12.00;9.35;;;;;;;7.13;91.68;101554.41;6275760;22;20031;-96
2022/02/09 07:06:34;;;;;;;13.40;8.68;;;;;;;7.37;91.95;101605.91;6278408;22;20589;-96
2022/02/09 07:09:10;;;;;;;13.85;9.00;;;;;;;7.35;91.30;101589.25;6278382;22;20645;-95
2022/02/09 07:11:38;;;;;;;10.93;8.27;;;;;;;7.22;91.23;101562.19;6278904;22;20019;-96
2022/02/09 07:14:17;;;;;;;11.27;8.60;;;;;;;7.41;91.49;101599.66;6278345;22;20015;-92
2022/02/09 07:16:45;;;;;;;12.68;8.68;;;;;;;7.30;90.83;101568.22;6245755;22;20027;-93
2022/02/09 07:19:13;;;;;;;13.93;7.93;;;;;;;7.47;90.48;101596.09;6272156;22;20026;-94
2022/02/09 07:21:41;;;;;;;10.55;7.70;;;;;;;7.68;90.28;101614.22;6267783;22;20020;-92
2022/02/09 07:24:16;;;;;;;11.35;7.55;;;;;;;7.51;90.46;101598.66;6270302;22;20015;-93
2022/02/09 07:29:15;;;;;;;9.90;7.65;;;;;;;7.30;90.76;101564.72;6272783;22;20020;-93
2022/02/09 07:31:44;;;;;;;11.23;8.00;;;;;;;7.47;90.55;101585.53;6277301;22;20024;-95
2022/02/09 07:34:12;;;;;;;10.95;7.50;;;;;;;7.37;90.08;101564.63;6273148;22;20404;-94
2022/02/09 07:36:43;;;;;;;10.52;7.45;;;;;;;7.56;90.49;101609.09;6270833;22;20384;-93
2022/02/09 07:39:10;;;;;;;13.45;7.60;;;;;;;7.39;90.67;101583.03;6274055;22;20074;-94
2022/02/09 07:41:41;;;;;;;10.70;7.30;;;;;;;7.46;90.85;101579.41;6271271;22;20020;-93
2022/02/09 07:44:27;;;;;;;12.13;7.18;;;;;;;7.62;90.46;101616.94;6247358;22;20019;-93
2022/02/09 07:47:21;;;;;;;11.23;6.68;;;;;;;7.69;90.60;101639.69;6272433;22;20026;-94
2022/02/09 07:50:03;;;;;;;11.85;6.65;;;;;;;7.40;90.52;101566.31;6211740;22;20035;-93
2022/02/09 07:52:38;;;;;;;11.60;7.30;;;;;;;7.48;90.69;101582.88;6188435;23;20098;-94
2022/02/09 07:55:24;;;;;;;;;;;;;;;;;;;;;
2022/02/09 07:57:55;;;;;;;8.68;6.65;;;;;;;7.64;90.46;101591.44;6213626;23;20071;-92
2022/02/09 08:00:22;;;;;;;10.57;6.85;;;;;;;7.72;89.72;101592.16;6215004;23;20043;-92
2022/02/09 08:03:04;;;;;;;;;;;;;;;7.96;88.95;101622.53;6218471;23;20021;-92
2022/02/09 08:05:35;;;;;;;10.77;6.68;;;;;;;7.73;88.91;101584.22;6200941;23;19922;-92
2022/02/09 08:08:15;;;;;;;8.82;6.47;;;;;;;7.65;89.06;101566.81;6222244;23;20487;-92
2022/02/09 08:11:09;;;;;;;11.93;6.68;;;;;;;7.82;88.42;101587.63;6220118;23;20029;-96
2022/02/09 08:33:50;;;;;;;9.68;6.82;;;;;;;8.24;85.73;101586.84;6224924;23;20016;-95
2022/02/09 08:36:19;;;;;;;8.68;6.93;;;;;;;8.08;85.62;101556.38;6220241;23;20021;-94
2022/02/09 08:38:46;;;;;;;9.95;6.82;;;;;;;8.40;85.78;101616.50;6204510;23;20060;-94
2022/02/09 08:41:18;;;;;;;9.07;7.13;;;;;;;8.15;85.78;101565.06;6222712;23;20064;-95
2022/02/09 08:43:46;;;;;;;13.57;7.28;;;;;;;8.10;85.47;101555.47;6222179;23;20021;-93
2022/02/09 08:46:16;;;;;;;12.13;6.07;;;;;;;8.13;85.47;101558.94;6212880;23;20027;-94
2022/02/09 08:48:47;;;;;;;10.65;6.97;;;;;;;8.14;85.40;101560.69;6214910;23;20025;-94
2022/02/09 08:51:14;;;;;;;8.25;6.53;;;;;;;8.38;85.08;101595.41;6216617;23;20092;-93
2022/02/09 08:53:42;;;;;;;10.77;7.50;;;;;;;8.47;84.80;101589.13;6215583;23;20012;-95
2022/02/09 08:56:11;;;;;;;10.57;7.00;;;;;;;8.42;85.02;101594.47;6217064;23;20025;-93
2022/02/09 08:58:41;;;;;;;11.00;6.95;;;;;;;8.32;85.66;101584.13;6217363;23;20096;-95
2022/02/09 09:01:10;;;;;;;10.48;7.05;;;;;;;8.18;85.37;101554.47;6214230;23;20071;-95
2022/02/09 09:03:48;;;;;;;10.90;7.45;;;;;;;8.32;85.50;101579.72;6214392;23;20125;-94
2022/02/09 09:06:20;;;;;;;11.30;7.22;;;;;;;8.32;85.31;101585.00;6215304;23;20024;-94
2022/02/09 09:09:04;;;;;;;11.93;7.75;;;;;;;8.21;85.20;101551.72;6219035;23;20021;-94
2022/02/09 10:01:02;;;;;;;9.63;6.90;;;;;;;9.81;77.08;101520.00;6155464;23;20049;-95
2022/02/09 10:03:04;;;;;;;11.75;7.10;;;;;;;10.14;77.20;101571.16;6154195;23;20104;-94
2022/02/09 10:34:29;;;;;;;7.22;5.55;;;;;;;11.09;71.13;101541.06;6153171;23;20037;-94
2022/02/09 10:37:02;;;;;;;8.10;5.82;;;;;;;11.14;72.00;101554.19;6151518;23;20025;-95
2022/02/09 10:40:13;;;;;;;9.32;6.20;;;;;;;11.09;72.07;101546.38;6154282;23;20024;-94
2022/02/09 10:42:55;;;;;;;8.70;5.80;;;;;;;11.29;71.36;101543.09;6156840;23;20044;-95
2022/02/09 10:45:48;;;;;;;8.20;5.80;;;;;;;11.12;71.33;101503.00;6153056;23;20420;-93
2022/02/09 10:48:35;;;;;;;8.23;5.97;;;;;;;11.29;70.82;101518.38;6155371;23;20024;-94
2022/02/09 10:52:03;;;;;;;10.10;6.00;;;;;;;11.12;71.30;101495.06;6153699;23;20036;-91
2022/02/09 10:54:32;;;;;;;8.50;6.22;;;;;;;10.98;71.62;101491.97;6153769;23;20021;-92
2022/02/09 10:57:06;;;;;;;;;;;;;;;11.10;71.80;101528.69;6157133;23;20018;-92
2022/02/09 10:59:39;;;;;;;8.52;5.63;;;;;;;10.74;71.99;101477.69;6155455;23;19921;-92
2022/02/09 11:02:17;;;;;;;8.50;5.75;;;;;;;10.70;72.26;101479.56;6150561;23;20071;-93
2022/02/09 11:04:48;;;;;;;9.88;5.90;;;;;;;10.79;72.84;101504.91;6154345;23;20133;-93
2022/02/09 11:07:43;;;;;;;9.93;5.65;;;;;;;10.75;72.52;101492.66;6127685;23;20029;-91
2022/02/09 11:10:10;;;;;;;8.27;5.68;;;;;;;10.88;72.42;101505.47;6154018;23;20026;-93
2022/02/09 11:12:38;;;;;;;9.40;5.50;;;;;;;10.98;72.59;101516.69;6149783;23;20018;-93
2022/02/09 11:15:09;;;;;;;8.88;6.10;;;;;;;10.87;71.96;101498.44;6148163;23;20032;-94
2022/02/09 11:17:40;;;;;;;8.13;5.95;;;;;;;10.75;72.20;101493.53;6152702;23;20520;-93
2022/02/09 11:20:31;;;;;;;9.10;5.05;;;;;;;11.09;72.07;101527.81;6151901;23;20021;-91
2022/02/09 11:23:05;;;;;;;7.43;5.00;;;;;;;11.13;72.31;101531.25;6148816;23;20017;-91
2022/02/09 11:25:44;;;;;;;10.82;4.88;;;;;;;11.10;70.73;101488.94;6154282;23;20234;-93
2022/02/09 11:28:25;;;;;;;7.10;4.80;;;;;;;11.35;70.46;101520.81;6154733;23;20025;-91
2022/02/09 11:31:15;;;;;;;8.52;4.90;;;;;;;10.96;70.58;101496.44;6168359;23;20032;-93
2022/02/09 11:33:58;;;;;;;8.20;4.70;;;;;;;10.97;71.77;101524.69;6171190;23;20006;-92
2022/02/09 11:36:43;;;;;;;9.35;4.72;;;;;;;10.43;72.23;101464.47;6173946;23;20083;-93
2022/02/09 11:39:51;;;;;;;7.47;4.47;;;;;;;10.54;72.78;101484.47;6168151;23;20018;-94
2022/02/09 11:42:42;;;;;;;11.52;4.85;;;;;;;10.24;73.35;101447.38;6165220;23;20013;-94
2022/02/09 11:45:58;;;;;;;8.85;4.90;;;;;;;10.45;73.59;101491.78;6159786;23;20097;-95
2022/02/09 12:00:05;;;;;;;9.10;4.53;;;;;;;10.81;73.04;101497.78;6213609;23;20719;-93
2022/02/09 12:11:38;;;;;;;6.07;4.15;;;;;;;10.75;72.61;101471.47;6213688;23;20023;-93
2022/02/09 12:18:02;;;;;;;6.50;4.32;;;;;;;11.00;71.30;101445.09;6192607;23;20023;-94
2022/02/09 12:20:37;;;;;;;7.32;4.57;;;;;;;11.09;70.52;101408.53;6186872;23;20338;-93
2022/02/09 12:25:38;;;;;;;9.90;4.10;;;;;;;10.94;70.06;101421.41;6214777;23;20016;-92
2022/02/09 12:28:13;;;;;;;8.23;3.83;;;;;;;10.97;70.30;101435.44;6196530;23;20025;-93
2022/02/09 12:30:49;;;;;;;6.35;3.50;;;;;;;11.06;70.01;101429.84;6221402;23;20048;-95
2022/02/09 12:33:28;;;;;;;6.88;3.30;;;;;;;11.14;68.86;101390.69;6218822;23;20096;-95
2022/02/09 12:36:21;;;;;;;4.72;3.03;;;;;;;11.47;67.67;101417.88;6173223;23;20040;-95
2022/02/09 12:39:05;;;;;;;5.43;2.80;;;;;;;11.43;67.50;101407.41;6215403;23;20021;-93
2022/02/09 12:41:49;;;;;;;4.88;3.10;;;;;;;11.52;68.15;101425.63;6216331;23;20027;-95
2022/02/09 12:44:23;;;;;;;6.22;3.13;;;;;;;11.20;68.25;101403.72;6189098;23;20016;-92
2022/02/09 12:46:57;;;;;;;5.82;2.65;;;;;;;11.18;69.01;101407.34;6216738;23;20012;-92
2022/02/09 12:49:32;;;;;;;3.05;2.53;;;;;;;10.90;68.76;101357.91;6215787;23;20032;-94
2022/02/09 12:51:59;;;;;;;5.75;3.03;;;;;;;11.06;69.05;101402.47;6214735;23;20013;-92
2022/02/09 12:54:29;;;;;;;4.78;2.72;;;;;;;11.21;69.74;101410.78;6185211;23;20019;-92
2022/02/09 12:57:01;;;;;;;7.10;2.73;;;;;;;11.04;69.26;101361.88;6187624;23;20066;-91
2022/02/09 12:59:30;;;;;;;7.40;3.33;;;;;;;11.32;68.80;101398.97;6217701;23;20443;-93
2022/02/09 13:02:03;;;;;;;6.85;3.45;;;;;;;11.33;68.97;101385.66;6215723;23;20025;-92
2022/02/09 13:04:39;;;;;;;5.43;2.97;;;;;;;11.35;68.94;101380.25;6215627;23;20084;-94
2022/02/09 13:07:14;;;;;;;7.63;3.30;;;;;;;11.85;68.62;101411.22;6216243;23;20067;-93
2022/02/09 13:09:49;;;;;;;5.88;3.20;;;;;;;12.13;66.90;101392.47;6215363;23;20032;-92
2022/02/09 13:12:27;;;;;;;7.68;3.40;;;;;;;12.25;65.58;101402.66;6214452;23;20095;-92
2022/02/09 13:15:10;;;;;;;7.20;3.43;;;;;;;12.76;64.21;101398.88;6216050;23;20023;-93
2022/02/09 13:18:13;;;;;;;6.20;3.17;;;;;;;12.82;62.71;101349.94;6216486;23;20017;-94
2022/02/09 13:24:07;;;;;;;5.32;3.10;;;;;;;13.21;61.93;101324.38;6195512;23;20012;-95
2022/02/09 14:47:44;;;;;;;10.23;3.10;;;;;;;12.34;66.31;101294.34;6220764;23;20027;-94
2022/02/09 14:55:56;;;;;;;6.03;2.67;;;;;;;12.07;67.06;101259.13;6218247;23;20026;-95
2022/02/09 14:58:32;;;;;;;5.95;2.70;;;;;;;12.08;66.79;101250.25;6223470;23;20013;-92
2022/02/09 15:01:15;;;;;;;6.75;2.95;;;;;;;12.38;66.80;101287.97;6226153;23;20225;-95
2022/02/09 15:14:07;;;;;;;4.72;2.45;;;;;;;12.21;67.71;101284.19;6229438;23;20025;-94
2022/02/09 15:20:05;;;;;;;5.53;2.55;;;;;;;12.19;67.55;101272.78;6213657;23;20023;-92
2022/02/09 15:22:43;;;;;;;5.00;2.20;;;;;;;12.14;67.72;101279.19;6216973;23;20706;-95
2022/02/09 15:25:19;;;;;;;;;;;;;;;12.14;68.37;101285.34;6217398;23;20467;-93
2022/02/09 15:27:58;;;;;;;4.60;2.72;;;;;;;11.89;68.53;101231.50;6217119;23;19916;-95
2022/02/09 15:30:35;;;;;;;9.30;2.45;;;;;;;11.68;69.12;101205.75;6214351;23;20024;-93
2022/02/09 15:33:04;;;;;;;3.33;2.15;;;;;;;11.87;69.05;101255.44;6190217;23;20472;-92
2022/02/09 15:35:37;;;;;;;5.65;2.65;;;;;;;11.60;69.37;101208.72;6215235;23;20025;-93
2022/02/09 15:38:18;;;;;;;5.68;2.75;;;;;;;11.53;69.45;101212.53;6213740;23;20016;-93
2022/02/09 15:41:00;;;;;;;7.43;3.00;;;;;;;11.52;69.84;101202.81;6194663;23;20004;-93
2022/02/09 16:21:46;;;;;;;10.32;3.53;;;;;;;10.78;74.09;101217.91;6218652;23;20187;-94
2022/02/09 16:33:33;;;;;;;6.43;3.95;;;;;;;10.95;75.66;101272.97;6215827;23;20044;-94
2022/02/09 16:44:31;;;;;;;10.15;4.25;;;;;;;10.30;76.38;101209.84;6234248;23;20023;-94
2022/02/09 16:47:04;;;;;;;10.57;4.35;;;;;;;10.61;77.03;101267.94;6233054;23;20028;-94
2022/02/09 16:50:06;;;;;;;12.65;4.30;;;;;;;10.45;76.59;101240.22;6226110;23;20021;-94
2022/02/09 17:20:12;;;;;;;14.02;6.15;;;;;;;10.13;76.27;101246.53;6218024;23;20020;-93
2022/02/09 17:22:53;;;;;;;11.50;5.30;;;;;;;9.87;75.72;101215.59;6216515;23;20021;-93
2022/02/09 17:25:22;;;;;;;12.55;5.43;;;;;;;9.87;76.00;101215.59;6189981;23;20384;-93
2022/02/09 17:27:50;;;;;;;11.45;5.45;;;;;;;10.03;75.67;101235.38;6190317;23;20012;-93
2022/02/09 17:30:57;;;;;;;12.32;6.03;;;;;;;9.98;75.38;101226.72;6214820;23;20028;-93
2022/02/09 17:53:57;;;;;;;13.80;5.78;;;;;;;9.64;75.75;101220.72;6217382;23;20059;-94
2022/02/09 17:56:27;;;;;;;9.95;5.30;;;;;;;9.49;76.20;101209.69;6216193;23;20016;-93
2022/02/09 17:58:55;;;;;;;;;;;;;;;9.74;76.67;101251.28;6220080;23;20020;-93
2022/02/09 18:01:22;;;;;;;11.77;4.80;;;;;;;9.39;76.87;101213.50;6188925;23;19920;-94
2022/02/09 18:03:53;;;;;;;11.23;4.75;;;;;;;9.37;76.75;101223.25;6189848;23;20016;-92
2022/02/09 18:09:46;;;;;;;11.07;5.13;;;;;;;9.30;76.81;101205.84;6165829;23;20476;-94
2022/02/09 18:12:38;;;;;;;11.07;5.10;;;;;;;9.60;76.89;101250.81;6137380;23;20041;-91
2022/02/09 18:29:57;;;;;;;10.10;4.70;;;;;;;8.89;78.77;101219.34;6161109;23;20026;-95
2022/02/09 18:44:13;;;;;;;11.45;6.43;;;;;;;8.65;80.49;101212.94;6152283;23;20025;-94
2022/02/09 19:03:41;;;;;;;12.25;6.85;;;;;;;8.17;81.60;101197.41;6154168;23;20021;-94
2022/02/09 19:06:19;;;;;;;16.15;8.68;;;;;;;8.38;82.01;101240.88;6152535;23;20036;-93
2022/02/09 19:19:32;;;;;;;14.60;6.33;;;;;;;7.68;84.51;101187.13;6150892;23;20033;-94
2022/02/09 19:30:42;;;;;;;16.23;7.65;;;;;;;7.91;85.94;101218.22;6154089;23;20740;-92
2022/02/09 19:43:20;;;;;;;13.13;6.78;;;;;;;7.85;85.50;101208.72;6149997;23;20017;-95
2022/02/09 19:45:43;;;;;;;12.48;6.55;;;;;;;7.73;85.06;101198.41;6148839;23;20022;-92
2022/02/09 19:48:50;;;;;;;15.65;8.05;;;;;;;7.52;86.53;101170.78;6150036;23;20402;-94
2022/02/09 19:54:40;;;;;;;13.93;7.72;;;;;;;7.67;86.44;101203.84;6151432;23;20041;-94
2022/02/09 19:57:12;;;;;;;15.52;8.32;;;;;;;7.44;86.50;101171.84;6124852;23;20408;-94
2022/02/09 19:59:48;;;;;;;15.88;8.10;;;;;;;7.66;86.50;101210.88;6150616;23;20028;-91
2022/02/09 20:02:18;;;;;;;15.85;7.93;;;;;;;7.74;86.27;101232.66;6152903;23;20025;-94
2022/02/09 20:04:58;;;;;;;14.48;7.82;;;;;;;7.67;86.79;101243.41;6112663;23;20029;-92
2022/02/09 20:07:28;;;;;;;14.10;7.03;;;;;;;7.32;87.41;101184.38;6124798;23;20034;-91
2022/02/09 20:09:58;;;;;;;18.98;8.10;;;;;;;7.37;87.74;101200.13;6149901;23;20018;-94
2022/02/09 20:12:28;;;;;;;15.18;6.60;;;;;;;7.47;88.42;101203.41;6121229;23;20349;-93
2022/02/09 20:15:03;;;;;;;11.65;7.32;;;;;;;7.51;88.11;101213.88;6121343;23;20022;-93
2022/02/09 20:17:30;;;;;;;16.73;7.80;;;;;;;7.20;88.54;101170.63;6147620;23;20445;-92
2022/02/09 20:20:17;;;;;;;14.77;7.35;;;;;;;7.33;88.35;101204.56;6148604;23;20715;-93
2022/02/09 20:22:48;;;;;;;10.05;6.18;;;;;;;7.19;88.32;101185.56;6151432;23;20030;-93
2022/02/09 20:25:19;;;;;;;12.10;7.10;;;;;;;7.35;88.95;101226.50;6150542;23;20021;-93
2022/02/09 20:27:53;;;;;;;14.43;7.50;;;;;;;7.37;89.07;101224.69;6153017;23;20032;-92
2022/02/09 20:30:25;;;;;;;13.65;7.45;;;;;;;6.90;89.19;101165.06;6150993;23;20029;-91
2022/02/09 20:33:04;;;;;;;11.25;6.57;;;;;;;7.01;89.16;101191.19;6150052;23;20024;-94
2022/02/09 20:35:36;;;;;;;13.63;6.72;;;;;;;6.93;89.77;101193.94;6153249;23;20080;-95
2022/02/09 20:38:16;;;;;;;12.60;7.32;;;;;;;7.14;90.27;101226.91;6154963;23;20024;-92
2022/02/09 20:41:00;;;;;;;13.65;7.50;;;;;;;6.89;90.16;101183.53;6151341;23;20096;-95
2022/02/09 20:43:31;;;;;;;15.43;7.95;;;;;;;6.86;90.77;101186.22;6152449;23;20210;-93
2022/02/09 20:46:04;;;;;;;19.30;8.10;;;;;;;7.09;91.47;101234.03;6125386;23;20777;-93
2022/02/09 20:48:35;;;;;;;12.55;7.65;;;;;;;6.92;91.64;101207.16;6132770;23;20018;-92
2022/02/09 20:51:19;;;;;;;13.48;7.95;;;;;;;7.04;92.21;101223.59;6160015;23;20043;-91
2022/02/09 20:53:46;;;;;;;17.17;8.60;;;;;;;6.91;92.57;101194.91;6157244;23;20033;-93
2022/02/09 20:56:26;;;;;;;14.38;7.65;;;;;;;6.80;91.85;101187.19;6160547;23;20028;-94
2022/02/09 20:59:01;;;;;;;14.30;7.80;;;;;;;6.89;92.51;101186.16;6162143;23;20065;-94
2022/02/09 21:01:54;;;;;;;12.65;7.35;;;;;;;6.72;92.26;101169.81;6163157;23;20287;-94
2022/02/09 21:04:29;;;;;;;14.88;8.07;;;;;;;7.04;91.98;101218.34;6157177;23;20021;-93
2022/02/09 21:07:07;;;;;;;14.57;6.93;;;;;;;6.90;92.30;101195.78;6155314;23;20117;-93
2022/02/09 21:09:56;;;;;;;13.27;7.05;;;;;;;6.85;92.04;101187.97;6129258;23;20457;-94
2022/02/09 21:12:48;;;;;;;12.20;6.78;;;;;;;6.81;91.75;101188.06;6154260;23;20061;-94
2022/02/09 21:23:48;;;;;;;15.87;7.83;;;;;;;6.54;92.72;101156.09;6152703;23;20018;-93
2022/02/09 21:58:53;;;;;;;11.98;7.85;;;;;;;6.45;94.07;101176.47;6158208;23;20079;-91
2022/02/09 22:06:12;;;;;;;14.40;7.07;;;;;;;6.45;93.64;101171.19;6136744;23;20021;-95
2022/02/09 22:48:58;;;;;;;15.60;8.40;;;;;;;5.88;94.14;101082.75;6167983;23;20024;-95
2022/02/09 22:57:04;;;;;;;14.27;9.02;;;;;;;5.83;94.33;101081.03;6161641;23;20089;-94
2022/02/09 23:00:05;;;;;;;16.00;8.85;;;;;;;6.08;94.76;101139.38;6139105;23;20079;-94
2022/02/09 23:02:38;;;;;;;17.65;9.27;;;;;;;5.69;94.90;101078.66;6159296;23;20017;-93
2022/02/09 23:13:43;;;;;;;17.95;9.88;;;;;;;5.48;96.39;101052.72;6158039;23;20017;-94
2022/02/09 23:19:27;;;;;;;12.52;8.80;;;;;;;5.61;96.87;101085.78;6158002;23;20024;-94
2022/02/09 23:21:43;;;;;;;16.23;9.30;;;;;;;5.69;97.30;101112.81;6157684;23;20013;-93
